createdAt,value
2023-02-11T00:01:21.668Z,81.70
2023-02-11T00:03:48.724Z,82.00
2023-02-11T00:06:16.043Z,82.40
2023-02-11T00:08:43.416Z,82.50
2023-02-11T00:11:17.330Z,82.50
2023-02-11T00:13:45.611Z,82.30
2023-02-11T00:16:15.777Z,82.50
2023-02-11T00:18:43.084Z,83.00
2023-02-11T00:21:16.499Z,83.40
2023-02-11T00:23:44.473Z,83.00
2023-02-11T00:26:17.730Z,83.70
2023-02-11T00:28:45.793Z,83.80
2023-02-11T00:31:14.627Z,83.60
2023-02-11T00:33:41.848Z,82.90
2023-02-11T00:36:13.443Z,82.40
2023-02-11T00:38:40.537Z,81.70
2023-02-11T00:41:07.561Z,81.40
2023-02-11T00:43:35.990Z,81.00
2023-02-11T00:46:03.172Z,81.80
2023-02-11T00:48:32.789Z,81.40
2023-02-11T00:50:59.782Z,82.40
2023-02-11T00:53:27.210Z,83.40
2023-02-11T00:55:54.157Z,83.00
2023-02-11T00:58:22.637Z,82.00
2023-02-11T01:00:49.767Z,81.70
2023-02-11T01:03:19.731Z,81.60
2023-02-11T01:05:47.161Z,82.40
2023-02-11T01:08:14.224Z,82.70
2023-02-11T01:10:41.146Z,83.30
2023-02-11T01:13:08.085Z,83.20
2023-02-11T01:15:35.155Z,82.90
2023-02-11T01:18:02.232Z,82.50
2023-02-11T01:20:29.830Z,81.60
2023-02-11T01:22:56.796Z,81.40
2023-02-11T01:25:23.976Z,81.50
2023-02-11T01:27:50.926Z,80.80
2023-02-11T01:30:17.927Z,80.80
2023-02-11T01:32:44.889Z,81.00
2023-02-11T01:35:11.823Z,81.90
2023-02-11T01:37:39.091Z,81.90
2023-02-11T01:40:11.407Z,81.60
2023-02-11T01:42:38.538Z,82.30
2023-02-11T01:45:44.436Z,82.50
2023-02-11T01:48:15.590Z,82.20
2023-02-11T01:50:43.356Z,81.60
2023-02-11T01:53:30.214Z,82.00
2023-02-11T01:56:16.370Z,82.10
2023-02-11T01:58:46.054Z,82.90
2023-02-11T02:01:17.902Z,81.20
2023-02-11T02:03:47.350Z,80.40
2023-02-11T02:06:39.415Z,80.00
2023-02-11T02:09:15.256Z,80.80
2023-02-11T02:11:42.375Z,80.40
2023-02-11T02:14:09.785Z,81.70
2023-02-11T02:16:37.988Z,81.40
2023-02-11T02:19:45.262Z,81.40
2023-02-11T02:23:09.399Z,80.70
2023-02-11T02:25:45.399Z,81.80
2023-02-11T02:28:14.791Z,82.10
2023-02-11T02:31:02.828Z,81.10
2023-02-11T02:33:50.993Z,82.70
2023-02-11T02:36:56.205Z,81.10
2023-02-11T02:39:29.250Z,80.40
2023-02-11T02:41:57.201Z,80.50
2023-02-11T02:44:24.978Z,81.00
2023-02-11T02:46:52.015Z,81.20
2023-02-11T02:49:19.023Z,81.40
2023-02-11T02:52:10.397Z,81.40
2023-02-11T02:54:58.688Z,81.70
2023-02-11T02:57:39.236Z,81.20
2023-02-11T03:00:44.566Z,81.00
2023-02-11T03:03:35.929Z,81.00
2023-02-11T03:06:08.816Z,81.80
2023-02-11T03:08:51.588Z,80.50
2023-02-11T03:11:20.688Z,79.80
2023-02-11T03:13:49.896Z,81.40
2023-02-11T03:16:22.296Z,82.60
2023-02-11T03:18:54.571Z,82.30
2023-02-11T03:21:22.621Z,81.70
2023-02-11T03:24:00.856Z,81.30
2023-02-11T03:27:08.776Z,81.70
2023-02-11T03:29:51.821Z,81.70
2023-02-11T03:32:29.178Z,80.50
2023-02-11T03:35:00.790Z,80.10
2023-02-11T03:37:40.343Z,81.20
2023-02-11T03:40:15.206Z,81.20
2023-02-11T03:42:53.408Z,81.70
2023-02-11T03:45:23.691Z,80.30
2023-02-11T03:48:00.660Z,80.70
2023-02-11T03:50:31.531Z,80.80
2023-02-11T03:53:00.528Z,81.70
2023-02-11T03:55:29.813Z,81.70
2023-02-11T03:57:57.212Z,81.60
2023-02-11T04:00:37.929Z,81.40
2023-02-11T04:03:05.994Z,80.70
2023-02-11T04:05:33.022Z,81.10
2023-02-11T04:08:00.004Z,80.10
2023-02-11T04:10:27.004Z,80.60
2023-02-11T04:12:53.981Z,80.90
2023-02-11T04:15:21.077Z,81.50
2023-02-11T04:17:48.021Z,81.70
2023-02-11T04:20:14.980Z,80.80
2023-02-11T04:22:41.968Z,81.20
2023-02-11T04:25:09.696Z,81.70
2023-02-11T04:27:37.210Z,80.70
2023-02-11T04:30:05.567Z,81.40
2023-02-11T04:32:32.536Z,81.00
2023-02-11T04:34:59.483Z,81.30
2023-02-11T04:37:26.489Z,81.70
2023-02-11T04:39:53.469Z,82.30
2023-02-11T04:42:20.391Z,82.00
2023-02-11T04:44:47.343Z,82.80
2023-02-11T04:47:15.566Z,83.20
2023-02-11T04:49:42.797Z,82.50
2023-02-11T04:52:09.859Z,82.10
2023-02-11T04:54:36.813Z,81.30
2023-02-11T04:57:03.935Z,81.30
2023-02-11T04:59:30.968Z,81.20
2023-02-11T05:01:57.976Z,81.40
2023-02-11T05:04:25.330Z,81.10
2023-02-11T05:06:52.404Z,81.20
2023-02-11T05:09:19.396Z,80.80
2023-02-11T05:11:46.476Z,81.10
2023-02-11T05:14:13.721Z,80.50
2023-02-11T05:16:43.658Z,80.70
2023-02-11T05:19:10.696Z,81.30
2023-02-11T05:21:38.052Z,82.10
2023-02-11T05:24:05.367Z,82.60
2023-02-11T05:26:32.965Z,81.10
2023-02-11T05:28:59.979Z,81.50
2023-02-11T05:31:27.017Z,81.70
2023-02-11T05:33:54.060Z,81.60
2023-02-11T05:36:21.011Z,81.30
2023-02-11T05:38:47.901Z,81.80
2023-02-11T05:41:14.963Z,82.10
2023-02-11T05:43:42.103Z,82.40
2023-02-11T05:46:09.105Z,81.60
2023-02-11T05:48:36.157Z,81.80
2023-02-11T05:51:03.148Z,81.60
2023-02-11T05:53:30.044Z,82.10
2023-02-11T05:55:57.618Z,82.10
2023-02-11T05:58:24.575Z,83.20
2023-02-11T06:00:51.526Z,82.30
2023-02-11T06:03:18.591Z,82.80
2023-02-11T06:05:46.248Z,83.80
2023-02-11T06:08:13.245Z,82.00
2023-02-11T06:10:43.133Z,82.60
2023-02-11T06:13:10.151Z,82.40
2023-02-11T06:15:37.340Z,83.00
2023-02-11T06:18:04.882Z,83.60
2023-02-11T06:20:31.966Z,82.90
2023-02-11T06:22:58.948Z,81.40
2023-02-11T06:25:25.885Z,82.30
2023-02-11T06:27:52.953Z,82.70
2023-02-11T06:30:20.243Z,82.40
2023-02-11T06:32:47.441Z,82.30
2023-02-11T06:35:14.978Z,82.70
2023-02-11T06:37:42.559Z,82.30
2023-02-11T06:40:11.431Z,82.10
2023-02-11T06:42:39.528Z,82.10
2023-02-11T06:45:09.536Z,82.50
2023-02-11T06:47:37.171Z,83.20
2023-02-11T06:50:06.020Z,83.80
2023-02-11T06:52:33.648Z,83.00
2023-02-11T06:55:00.959Z,82.40
2023-02-11T06:57:27.876Z,82.10
2023-02-11T06:59:55.811Z,82.80
2023-02-11T07:02:22.685Z,83.50
2023-02-11T07:04:49.724Z,83.00
2023-02-11T07:07:16.688Z,82.20
2023-02-11T07:09:43.810Z,81.60
2023-02-11T07:12:10.858Z,82.30
2023-02-11T07:14:37.889Z,82.10
2023-02-11T07:17:05.317Z,82.50
2023-02-11T07:19:32.542Z,82.90
2023-02-11T07:21:59.578Z,82.50
2023-02-11T07:24:26.555Z,81.80
2023-02-11T07:26:54.215Z,82.00
2023-02-11T07:29:21.175Z,82.10
2023-02-11T07:31:48.431Z,82.30
2023-02-11T07:34:15.744Z,81.80
2023-02-11T07:36:46.073Z,81.80
2023-02-11T07:39:13.058Z,81.60
2023-02-11T07:41:40.151Z,81.70
2023-02-11T07:44:07.583Z,82.30
2023-02-11T07:46:35.944Z,82.50
2023-02-11T07:49:03.093Z,81.40
2023-02-11T07:51:31.620Z,81.60
2023-02-11T07:54:00.270Z,81.70
2023-02-11T07:56:28.728Z,81.40
2023-02-11T07:58:56.939Z,81.80
2023-02-11T08:01:28.562Z,82.10
2023-02-11T08:03:57.569Z,82.10
2023-02-11T08:06:26.564Z,82.40
2023-02-11T08:08:53.709Z,82.10
2023-02-11T08:11:26.696Z,82.70
2023-02-11T08:13:55.210Z,82.10
2023-02-11T08:16:32.382Z,81.40
2023-02-11T08:19:02.111Z,81.80
2023-02-11T08:21:29.355Z,81.50
2023-02-11T08:23:56.888Z,81.50
2023-02-11T08:26:29.088Z,82.40
2023-02-11T08:28:58.210Z,81.80
2023-02-11T08:31:31.494Z,80.90
2023-02-11T08:33:58.964Z,81.20
2023-02-11T08:36:39.248Z,81.80
2023-02-11T08:39:18.674Z,81.40
2023-02-11T08:41:54.001Z,81.10
2023-02-11T08:44:22.207Z,79.90
2023-02-11T08:46:50.578Z,80.50
2023-02-11T08:49:17.725Z,79.70
2023-02-11T08:51:45.323Z,79.80
2023-02-11T08:54:12.814Z,80.20
2023-02-11T08:56:40.647Z,79.70
2023-02-11T08:59:09.552Z,80.60
2023-02-11T09:01:36.879Z,79.30
2023-02-11T09:04:03.857Z,77.80
2023-02-11T09:06:30.881Z,78.10
2023-02-11T09:08:59.084Z,77.80
2023-02-11T09:11:30.592Z,78.30
2023-02-11T09:13:57.820Z,78.00
2023-02-11T09:16:27.773Z,77.60
2023-02-11T09:18:57.398Z,77.80
2023-02-11T09:21:24.682Z,77.40
2023-02-11T09:23:51.692Z,77.30
2023-02-11T09:26:24.920Z,77.60
2023-02-11T09:28:52.643Z,78.20
2023-02-11T09:31:22.770Z,77.60
2023-02-11T09:33:53.648Z,76.90
2023-02-11T09:36:26.379Z,77.30
2023-02-11T09:38:54.814Z,77.40
2023-02-11T09:41:24.770Z,78.20
2023-02-11T09:43:58.611Z,78.30
2023-02-11T09:46:27.769Z,78.60
2023-02-11T09:48:56.551Z,78.50
2023-02-11T09:51:55.567Z,78.60
2023-02-11T09:54:45.324Z,78.30
2023-02-11T09:57:27.674Z,78.40
2023-02-11T09:59:56.762Z,77.50
2023-02-11T10:02:50.058Z,76.90
2023-02-11T10:05:20.044Z,76.40
2023-02-11T10:07:58.891Z,75.90
2023-02-11T10:11:04.345Z,76.00
2023-02-11T10:13:46.451Z,75.60
2023-02-11T10:16:43.169Z,75.30
2023-02-11T10:19:38.293Z,75.00
2023-02-11T10:22:28.630Z,74.70
2023-02-11T10:25:00.568Z,74.60
2023-02-11T10:27:33.912Z,73.20
2023-02-11T10:30:19.301Z,72.50
2023-02-11T10:35:22.506Z,71.80
2023-02-11T10:37:49.742Z,71.90
2023-02-11T10:40:36.018Z,70.00
2023-02-11T10:43:10.315Z,69.70
2023-02-11T10:45:44.869Z,67.90
2023-02-11T10:48:36.428Z,67.00
2023-02-11T10:51:26.620Z,66.70
2023-02-11T10:54:05.700Z,68.30
2023-02-11T10:57:06.321Z,67.20
2023-02-11T10:59:40.515Z,66.60
2023-02-11T11:02:24.363Z,65.30
2023-02-11T11:04:57.821Z,64.30
2023-02-11T11:07:32.689Z,63.50
2023-02-11T11:10:27.343Z,62.00
2023-02-11T11:12:54.333Z,61.20
2023-02-11T11:15:31.262Z,62.90
2023-02-11T11:18:22.507Z,59.30
2023-02-11T11:21:01.326Z,60.40
2023-02-11T11:23:30.563Z,61.00
2023-02-11T11:26:11.900Z,61.40
2023-02-11T11:28:57.915Z,60.10
2023-02-11T11:31:27.739Z,59.20
2023-02-11T11:33:57.312Z,60.70
2023-02-11T11:36:37.865Z,59.90
2023-02-11T11:39:23.780Z,59.70
2023-02-11T11:42:01.883Z,59.10
2023-02-11T11:44:37.352Z,58.30
2023-02-11T11:47:13.682Z,55.50
2023-02-11T11:50:14.923Z,56.60
2023-02-11T11:53:01.754Z,56.90
2023-02-11T11:55:42.352Z,58.10
2023-02-11T11:58:21.788Z,58.80
2023-02-11T12:00:57.761Z,58.30
2023-02-11T12:03:33.820Z,58.40
2023-02-11T12:06:21.982Z,59.70
2023-02-11T12:09:33.099Z,61.00
2023-02-11T12:12:11.960Z,57.40
2023-02-11T12:14:51.083Z,58.60
2023-02-11T12:17:54.833Z,58.60
2023-02-11T12:20:26.262Z,59.20
2023-02-11T12:23:14.538Z,61.00
2023-02-11T12:25:48.901Z,60.20
2023-02-11T12:28:45.954Z,61.40
2023-02-11T12:31:22.291Z,59.70
2023-02-11T12:34:07.881Z,59.30
2023-02-11T12:36:54.475Z,59.60
2023-02-11T12:39:34.101Z,60.00
2023-02-11T12:42:28.726Z,60.40
2023-02-11T12:45:12.240Z,60.00
2023-02-11T12:47:49.497Z,59.20
2023-02-11T12:50:49.632Z,61.60
2023-02-11T12:53:40.922Z,59.50
2023-02-11T12:56:39.028Z,60.10
2023-02-11T12:59:15.231Z,59.20
2023-02-11T13:01:44.851Z,59.10
2023-02-11T13:04:32.050Z,60.00
2023-02-11T13:07:05.615Z,60.00
2023-02-11T13:09:53.416Z,61.20
2023-02-11T13:12:39.488Z,59.10
2023-02-11T13:15:13.166Z,59.30
2023-02-11T13:17:59.101Z,58.70
2023-02-11T13:20:32.043Z,58.50
2023-02-11T13:23:23.166Z,59.40
2023-02-11T13:26:40.930Z,60.30
2023-02-11T13:29:39.527Z,59.40
2023-02-11T13:32:10.103Z,58.80
2023-02-11T13:34:42.861Z,58.20
2023-02-11T13:37:37.193Z,58.30
2023-02-11T13:40:22.263Z,58.60
2023-02-11T13:42:56.069Z,58.50
2023-02-11T13:45:30.457Z,58.20
2023-02-11T13:48:00.039Z,58.20
2023-02-11T13:50:28.224Z,56.80
2023-02-11T13:53:00.094Z,57.90
2023-02-11T13:55:28.087Z,58.20
2023-02-11T13:58:07.003Z,58.60
2023-02-11T14:00:37.119Z,57.60
2023-02-11T14:03:32.042Z,57.00
2023-02-11T14:06:29.519Z,56.00
2023-02-11T14:09:14.621Z,56.10
2023-02-11T14:11:41.963Z,57.20
2023-02-11T14:14:24.440Z,57.10
2023-02-11T14:17:00.481Z,56.10
2023-02-11T14:19:46.684Z,57.00
2023-02-11T14:22:37.965Z,58.30
2023-02-11T14:25:15.603Z,55.10
2023-02-11T14:27:56.822Z,55.80
2023-02-11T14:30:36.225Z,54.80
2023-02-11T14:33:29.329Z,56.20
2023-02-11T14:36:11.809Z,57.60
2023-02-11T14:38:54.633Z,57.60
2023-02-11T14:41:30.946Z,57.20
2023-02-11T14:44:02.095Z,58.40
2023-02-11T14:46:33.250Z,58.70
2023-02-11T14:49:03.866Z,57.80
2023-02-11T14:51:36.361Z,57.00
2023-02-11T14:54:25.318Z,56.80
2023-02-11T14:57:18.635Z,58.00
2023-02-11T15:00:21.482Z,60.30
2023-02-11T15:02:49.010Z,58.90
2023-02-11T15:05:21.459Z,58.40
2023-02-11T15:07:51.941Z,59.00
2023-02-11T15:10:27.902Z,58.40
2023-02-11T15:12:59.660Z,56.70
2023-02-11T15:15:28.371Z,58.60
2023-02-11T15:17:59.976Z,57.80
2023-02-11T15:20:29.850Z,58.20
2023-02-11T15:23:03.046Z,57.90
2023-02-11T15:25:32.991Z,58.40
2023-02-11T15:28:01.064Z,57.90
2023-02-11T15:30:31.946Z,59.00
2023-02-11T15:33:02.911Z,57.50
2023-02-11T15:35:37.232Z,60.50
2023-02-11T15:38:05.579Z,59.10
2023-02-11T15:40:35.053Z,61.00
2023-02-11T15:43:08.109Z,58.90
2023-02-11T15:45:38.136Z,61.70
2023-02-11T15:48:21.900Z,61.50
2023-02-11T15:50:58.978Z,61.40
2023-02-11T15:53:28.286Z,65.10
2023-02-11T15:56:11.650Z,63.40
2023-02-11T15:58:42.621Z,65.70
2023-02-11T16:01:11.035Z,71.50
2023-02-11T16:03:38.288Z,67.00
2023-02-11T16:06:24.571Z,72.20
2023-02-11T16:09:00.459Z,73.30
2023-02-11T16:11:31.271Z,73.00
2023-02-11T16:14:01.041Z,74.50
2023-02-11T16:16:32.227Z,76.30
2023-02-11T16:19:06.199Z,76.10
2023-02-11T16:21:39.400Z,75.90
2023-02-11T16:24:08.300Z,76.90
2023-02-11T16:26:41.051Z,77.10
2023-02-11T16:29:17.408Z,76.40
2023-02-11T16:31:48.862Z,77.00
2023-02-11T16:34:21.736Z,78.20
2023-02-11T16:36:50.384Z,78.00
2023-02-11T16:39:19.021Z,78.70
2023-02-11T16:41:45.944Z,79.50
2023-02-11T16:44:13.047Z,79.80
2023-02-11T16:46:40.373Z,80.30
2023-02-11T16:49:16.379Z,80.70
2023-02-11T16:51:45.151Z,80.90
2023-02-11T16:54:15.210Z,81.80
2023-02-11T16:56:42.769Z,81.90
2023-02-11T16:59:10.449Z,81.30
2023-02-11T17:01:39.793Z,81.20
2023-02-11T17:04:07.504Z,81.50
2023-02-11T17:06:35.126Z,81.80
2023-02-11T17:09:02.326Z,82.60
2023-02-11T17:11:29.213Z,82.80
2023-02-11T17:14:00.836Z,82.00
2023-02-11T17:16:30.713Z,82.70
2023-02-11T17:18:57.885Z,83.30
2023-02-11T17:21:27.644Z,84.10
2023-02-11T17:23:56.524Z,84.20
2023-02-11T17:26:23.567Z,84.80
2023-02-11T17:28:50.724Z,85.60
2023-02-11T17:31:17.830Z,85.60
2023-02-11T17:33:44.982Z,85.50
2023-02-11T17:36:12.281Z,85.20
2023-02-11T17:38:39.302Z,85.20
2023-02-11T17:41:06.861Z,85.50
2023-02-11T17:43:33.910Z,85.60
2023-02-11T17:46:00.907Z,85.60
2023-02-11T17:48:27.990Z,86.00
2023-02-11T17:50:55.123Z,86.10
2023-02-11T17:53:22.145Z,86.10
2023-02-11T17:55:49.417Z,85.80
2023-02-11T17:58:16.851Z,86.80
2023-02-11T18:00:43.863Z,86.20
2023-02-11T18:03:10.875Z,86.30
2023-02-11T18:05:38.239Z,86.50
2023-02-11T18:08:06.557Z,85.80
2023-02-11T18:10:34.183Z,85.40
2023-02-11T18:13:01.600Z,85.60
2023-02-11T18:15:28.636Z,86.30
2023-02-11T18:17:56.320Z,86.40
2023-02-11T18:20:23.324Z,86.10
2023-02-11T18:22:50.358Z,86.50
2023-02-11T18:25:18.900Z,87.20
2023-02-11T18:27:46.527Z,87.40
2023-02-11T18:30:19.157Z,87.70
2023-02-11T18:32:46.119Z,87.80
2023-02-11T18:35:15.238Z,88.20
2023-02-11T18:37:43.285Z,87.50
2023-02-11T18:40:11.883Z,87.70
2023-02-11T18:42:39.491Z,88.10
2023-02-11T18:45:09.775Z,87.70
2023-02-11T18:47:40.727Z,87.60
2023-02-11T18:50:09.603Z,87.70
2023-02-11T18:52:39.523Z,88.10
2023-02-11T18:55:07.800Z,88.60
2023-02-11T18:57:35.043Z,88.40
2023-02-11T19:00:02.126Z,89.00
2023-02-11T19:02:29.492Z,89.20
2023-02-11T19:04:56.412Z,89.20
2023-02-11T19:07:23.521Z,88.90
2023-02-11T19:09:50.401Z,89.00
2023-02-11T19:12:17.404Z,89.40
2023-02-11T19:14:44.320Z,89.60
2023-02-11T19:17:12.766Z,89.60
2023-02-11T19:19:41.216Z,89.70
2023-02-11T19:22:10.682Z,89.90
2023-02-11T19:24:38.276Z,89.00
2023-02-11T19:27:05.892Z,89.00
2023-02-11T19:29:35.341Z,89.20
2023-02-11T19:32:04.044Z,88.70
2023-02-11T19:34:31.108Z,89.10
2023-02-11T19:37:03.134Z,89.30
2023-02-11T19:39:30.161Z,89.00
2023-02-11T19:41:57.241Z,88.90
2023-02-11T19:44:24.204Z,89.50
2023-02-11T19:46:53.480Z,89.30
2023-02-11T19:49:24.605Z,89.30
2023-02-11T19:51:52.929Z,89.70
2023-02-11T19:54:20.609Z,89.60
2023-02-11T19:56:48.891Z,89.30
2023-02-11T19:59:16.885Z,89.40
2023-02-11T20:01:46.374Z,89.70
2023-02-11T20:04:13.800Z,90.10
2023-02-11T20:06:41.187Z,89.90
2023-02-11T20:09:12.085Z,89.30
2023-02-11T20:11:40.116Z,89.40
2023-02-11T20:14:08.507Z,89.30
2023-02-11T20:16:47.460Z,90.10
2023-02-11T20:19:18.276Z,90.00
2023-02-11T20:21:47.768Z,90.20
2023-02-11T20:24:19.161Z,89.70
2023-02-11T20:26:48.625Z,90.00
2023-02-11T20:29:17.961Z,90.00
2023-02-11T20:31:45.367Z,90.20
2023-02-11T20:34:12.794Z,90.00
2023-02-11T20:36:40.701Z,89.50
2023-02-11T20:39:08.346Z,90.00
2023-02-11T20:41:39.394Z,90.10
2023-02-11T20:44:08.423Z,90.30
2023-02-11T20:46:40.219Z,90.40
2023-02-11T20:49:08.933Z,90.30
2023-02-11T20:51:37.555Z,90.40
2023-02-11T20:54:06.298Z,90.30
2023-02-11T20:56:36.853Z,90.50
2023-02-11T20:59:05.307Z,90.50
2023-02-11T21:01:35.691Z,90.60
2023-02-11T21:04:05.712Z,90.80
2023-02-11T21:06:39.146Z,90.70
2023-02-11T21:09:08.129Z,90.90
2023-02-11T21:11:35.317Z,90.50
2023-02-11T21:14:02.498Z,90.70
2023-02-11T21:16:31.312Z,90.80
2023-02-11T21:18:58.270Z,90.60
2023-02-11T21:21:25.242Z,90.70
2023-02-11T21:23:52.563Z,90.50
2023-02-11T21:26:19.609Z,90.50
2023-02-11T21:28:46.686Z,90.50
2023-02-11T21:31:21.963Z,90.90
2023-02-11T21:33:50.905Z,91.20
2023-02-11T21:36:18.463Z,91.30
2023-02-11T21:38:45.495Z,91.30
2023-02-11T21:41:12.822Z,91.50
2023-02-11T21:43:39.831Z,91.40
2023-02-11T21:46:12.094Z,91.80
2023-02-11T21:48:39.169Z,91.50
2023-02-11T21:51:13.580Z,91.20
2023-02-11T21:53:40.575Z,91.10
2023-02-11T21:56:14.261Z,91.10
2023-02-11T21:58:41.514Z,90.90
2023-02-11T22:01:20.277Z,91.10
2023-02-11T22:03:48.179Z,91.00
2023-02-11T22:06:26.202Z,90.90
2023-02-11T22:08:54.857Z,90.90
2023-02-11T22:11:22.051Z,91.00
2023-02-11T22:13:53.018Z,90.80
2023-02-11T22:16:20.030Z,91.10
2023-02-11T22:18:47.139Z,91.20
2023-02-11T22:21:17.019Z,91.30
2023-02-11T22:23:44.460Z,91.30
2023-02-11T22:26:18.377Z,91.10
2023-02-11T22:28:46.574Z,91.00
2023-02-11T22:31:26.628Z,91.10
2023-02-11T22:33:54.189Z,91.20
2023-02-11T22:36:24.196Z,91.30
2023-02-11T22:38:51.173Z,91.30
2023-02-11T22:41:19.129Z,91.10
2023-02-11T22:43:46.926Z,91.20
2023-02-11T22:46:17.705Z,91.30
2023-02-11T22:48:45.036Z,91.50
2023-02-11T22:51:19.416Z,91.40
2023-02-11T22:53:53.817Z,91.30
2023-02-11T22:56:20.835Z,91.20
2023-02-11T22:58:48.234Z,91.30
2023-02-11T23:01:15.772Z,91.20
2023-02-11T23:03:43.192Z,91.30
2023-02-11T23:06:11.603Z,91.50
2023-02-11T23:08:40.336Z,91.40
2023-02-11T23:11:15.929Z,91.40
2023-02-11T23:13:45.084Z,91.40
2023-02-11T23:16:15.385Z,91.40
2023-02-11T23:18:43.619Z,91.40
2023-02-11T23:21:16.008Z,91.60
2023-02-11T23:23:43.447Z,91.80
2023-02-11T23:26:12.324Z,91.90
2023-02-11T23:28:40.681Z,91.70
2023-02-11T23:31:20.277Z,91.70
2023-02-11T23:33:48.442Z,91.60
2023-02-11T23:36:16.340Z,91.40
2023-02-11T23:38:43.710Z,91.60
2023-02-11T23:41:11.100Z,91.60
2023-02-11T23:43:39.036Z,91.70
2023-02-11T23:46:06.949Z,91.70
2023-02-11T23:48:36.212Z,91.70
2023-02-11T23:51:03.742Z,91.70
2023-02-11T23:53:30.851Z,91.70
2023-02-11T23:55:58.091Z,91.70
2023-02-11T23:58:25.173Z,91.80
